sensor_id;sensor_type;location;lat;lon;timestamp;pressure;altitude;pressure_sealevel;temperature;humidity
52651;BME280;38537;47.226;39.702;2023-07-13T00:01:16;100489.78;;;19.04;74.45
52651;BME280;38537;47.226;39.702;2023-07-13T00:03:44;100385.69;;;18.26;74.49
52651;BME280;38537;47.226;39.702;2023-07-13T00:06:12;100408.56;;;18.21;75.03
52651;BME280;38537;47.226;39.702;2023-07-13T00:08:39;100469.56;;;18.34;75.83
52651;BME280;38537;47.226;39.702;2023-07-13T00:11:07;100547.59;;;18.63;76.71
52651;BME280;38537;47.226;39.702;2023-07-13T00:13:34;100424.09;;;17.87;77.01
52651;BME280;38537;47.226;39.702;2023-07-13T00:16:05;100521.25;;;18.35;77.47
52651;BME280;38537;47.226;39.702;2023-07-13T00:18:33;100446.34;;;17.76;77.95
52651;BME280;38537;47.226;39.702;2023-07-13T00:21:00;100435.97;;;17.56;77.62
52651;BME280;38537;47.226;39.702;2023-07-13T00:23:37;100407.84;;;17.35;78.71
52651;BME280;38537;47.226;39.702;2023-07-13T00:26:09;100544.75;;;18.11;78.71
52651;BME280;38537;47.226;39.702;2023-07-13T00:28:38;100479.75;;;17.62;78.24
52651;BME280;38537;47.226;39.702;2023-07-13T00:31:07;100518.84;;;17.85;78.18
52651;BME280;38537;47.226;39.702;2023-07-13T00:33:35;100488.84;;;17.68;77.87
52651;BME280;38537;47.226;39.702;2023-07-13T00:36:04;100560.03;;;18.10;77.15
52651;BME280;38537;47.226;39.702;2023-07-13T00:38:31;100465.63;;;17.50;76.37
52651;BME280;38537;47.226;39.702;2023-07-13T00:41:00;100559.09;;;18.18;75.35
52651;BME280;38537;47.226;39.702;2023-07-13T00:43:28;100434.81;;;17.45;74.06
52651;BME280;38537;47.226;39.702;2023-07-13T00:49:08;100554.56;;;18.41;70.66
52651;BME280;38537;47.226;39.702;2023-07-13T00:51:43;100489.50;;;18.13;69.59
52651;BME280;38537;47.226;39.702;2023-07-13T00:54:15;100527.47;;;18.40;69.55
52651;BME280;38537;47.226;39.702;2023-07-13T00:56:49;100545.84;;;18.59;69.38
52651;BME280;38537;47.226;39.702;2023-07-13T00:59:18;100443.34;;;17.97;69.63
52651;BME280;38537;47.226;39.702;2023-07-13T01:01:47;100522.75;;;18.44;69.73
52651;BME280;38537;47.226;39.702;2023-07-13T01:04:17;100479.75;;;18.11;69.36
52651;BME280;38537;47.226;39.702;2023-07-13T01:06:45;100492.81;;;18.15;69.55
52651;BME280;38537;47.226;39.702;2023-07-13T01:09:15;100544.66;;;18.47;69.32
52651;BME280;38537;47.226;39.702;2023-07-13T01:11:43;100536.78;;;18.41;69.15
52651;BME280;38537;47.226;39.702;2023-07-13T01:14:12;100548.44;;;18.52;68.21
52651;BME280;38537;47.226;39.702;2023-07-13T01:16:45;100566.31;;;18.68;68.25
52651;BME280;38537;47.226;39.702;2023-07-13T01:19:40;100570.78;;;18.81;68.15
52651;BME280;38537;47.226;39.702;2023-07-13T01:22:10;100550.31;;;18.47;69.55
52651;BME280;38537;47.226;39.702;2023-07-13T01:24:43;100531.66;;;18.19;70.56
52651;BME280;38537;47.226;39.702;2023-07-13T01:27:13;100546.03;;;18.13;70.98
52651;BME280;38537;47.226;39.702;2023-07-13T01:29:42;100586.88;;;18.28;71.11
52651;BME280;38537;47.226;39.702;2023-07-13T01:32:16;100590.06;;;18.27;71.66
52651;BME280;38537;47.226;39.702;2023-07-13T01:34:44;100565.22;;;18.08;71.79
52651;BME280;38537;47.226;39.702;2023-07-13T01:37:11;100546.88;;;17.90;71.02
52651;BME280;38537;47.226;39.702;2023-07-13T01:39:39;100574.88;;;18.07;71.05
52651;BME280;38537;47.226;39.702;2023-07-13T01:42:06;100582.31;;;18.11;70.17
52651;BME280;38537;47.226;39.702;2023-07-13T01:44:34;100586.41;;;18.26;70.20
52651;BME280;38537;47.226;39.702;2023-07-13T01:47:04;100541.78;;;18.07;69.92
52651;BME280;38537;47.226;39.702;2023-07-13T01:49:32;100572.97;;;18.23;70.06
52651;BME280;38537;47.226;39.702;2023-07-13T01:51:59;100572.50;;;18.21;70.39
52651;BME280;38537;47.226;39.702;2023-07-13T01:54:27;100587.81;;;18.32;69.13
52651;BME280;38537;47.226;39.702;2023-07-13T01:56:54;100573.91;;;18.27;69.58
52651;BME280;38537;47.226;39.702;2023-07-13T01:59:22;100567.44;;;18.27;69.76
52651;BME280;38537;47.226;39.702;2023-07-13T02:01:50;100576.28;;;18.37;69.70
52651;BME280;38537;47.226;39.702;2023-07-13T02:04:17;100572.03;;;18.31;68.69
52651;BME280;38537;47.226;39.702;2023-07-13T02:06:45;100599.34;;;18.52;69.00
52651;BME280;38537;47.226;39.702;2023-07-13T02:09:15;100585.19;;;18.52;69.08
52651;BME280;38537;47.226;39.702;2023-07-13T02:11:43;100605.47;;;18.66;68.17
52651;BME280;38537;47.226;39.702;2023-07-13T02:14:10;100565.16;;;18.44;67.59
52651;BME280;38537;47.226;39.702;2023-07-13T02:16:38;100562.81;;;18.46;66.70
52651;BME280;38537;47.226;39.702;2023-07-13T02:19:06;100593.25;;;18.62;66.23
52651;BME280;38537;47.226;39.702;2023-07-13T02:21:33;100569.66;;;18.45;65.31
52651;BME280;38537;47.226;39.702;2023-07-13T02:24:01;100590.50;;;18.65;64.93
52651;BME280;38537;47.226;39.702;2023-07-13T02:26:28;100588.00;;;18.76;61.20
52651;BME280;38537;47.226;39.702;2023-07-13T02:28:55;100599.28;;;18.88;60.63
52651;BME280;38537;47.226;39.702;2023-07-13T02:31:23;100567.25;;;18.72;59.86
52651;BME280;38537;47.226;39.702;2023-07-13T02:33:53;100611.28;;;18.97;59.55
52651;BME280;38537;47.226;39.702;2023-07-13T02:36:20;100574.78;;;18.80;60.46
52651;BME280;38537;47.226;39.702;2023-07-13T02:38:49;100581.63;;;18.79;60.17
52651;BME280;38537;47.226;39.702;2023-07-13T02:41:17;100494.66;;;18.24;59.11
52651;BME280;38537;47.226;39.702;2023-07-13T02:43:45;100555.22;;;18.75;58.58
52651;BME280;38537;47.226;39.702;2023-07-13T02:46:13;100555.22;;;18.75;58.27
52651;BME280;38537;47.226;39.702;2023-07-13T02:48:41;100579.69;;;18.95;57.36
52651;BME280;38537;47.226;39.702;2023-07-13T02:51:08;100599.66;;;19.14;58.74
52651;BME280;38537;47.226;39.702;2023-07-13T02:53:36;100585.56;;;19.02;58.11
52651;BME280;38537;47.226;39.702;2023-07-13T02:56:06;100610.50;;;19.12;59.05
52651;BME280;38537;47.226;39.702;2023-07-13T02:58:34;100588.03;;;19.04;57.89
52651;BME280;38537;47.226;39.702;2023-07-13T03:01:08;100617.22;;;19.20;57.64
52651;BME280;38537;47.226;39.702;2023-07-13T03:03:36;100577.78;;;18.99;56.60
52651;BME280;38537;47.226;39.702;2023-07-13T03:06:05;100585.69;;;18.94;56.23
52651;BME280;38537;47.226;39.702;2023-07-13T03:08:43;100630.56;;;19.07;56.38
52651;BME280;38537;47.226;39.702;2023-07-13T03:11:14;100582.81;;;18.78;57.97
52651;BME280;38537;47.226;39.702;2023-07-13T03:13:44;100604.69;;;18.93;57.31
52651;BME280;38537;47.226;39.702;2023-07-13T03:16:13;100613.59;;;19.07;58.43
52651;BME280;38537;47.226;39.702;2023-07-13T03:18:48;100624.78;;;19.16;58.58
52651;BME280;38537;47.226;39.702;2023-07-13T03:21:16;100609.50;;;19.05;58.08
52651;BME280;38537;47.226;39.702;2023-07-13T03:23:43;100633.84;;;19.22;59.09
52651;BME280;38537;47.226;39.702;2023-07-13T03:26:14;100654.19;;;19.27;58.78
52651;BME280;38537;47.226;39.702;2023-07-13T03:28:43;100625.84;;;19.11;60.45
52651;BME280;38537;47.226;39.702;2023-07-13T03:31:18;100632.56;;;19.07;60.21
52651;BME280;38537;47.226;39.702;2023-07-13T03:33:46;100644.47;;;19.12;60.96
52651;BME280;38537;47.226;39.702;2023-07-13T03:36:21;100642.34;;;19.09;61.08
52651;BME280;38537;47.226;39.702;2023-07-13T03:38:55;100643.91;;;19.07;61.17
52651;BME280;38537;47.226;39.702;2023-07-13T03:41:26;100666.47;;;19.31;61.49
52651;BME280;38537;47.226;39.702;2023-07-13T03:43:55;100644.44;;;19.25;61.28
52651;BME280;38537;47.226;39.702;2023-07-13T03:46:27;100650.09;;;19.25;61.06
52651;BME280;38537;47.226;39.702;2023-07-13T03:48:56;100675.63;;;19.40;60.45
52651;BME280;38537;47.226;39.702;2023-07-13T03:51:25;100654.13;;;19.24;59.23
52651;BME280;38537;47.226;39.702;2023-07-13T03:53:52;100679.75;;;19.43;59.21
52651;BME280;38537;47.226;39.702;2023-07-13T03:56:20;100656.69;;;19.29;59.19
52651;BME280;38537;47.226;39.702;2023-07-13T03:58:50;100682.34;;;19.48;59.08
52651;BME280;38537;47.226;39.702;2023-07-13T04:01:21;100688.38;;;19.46;58.96
52651;BME280;38537;47.226;39.702;2023-07-13T04:03:49;100677.53;;;19.36;58.29
52651;BME280;38537;47.226;39.702;2023-07-13T04:06:23;100704.75;;;19.53;58.43
52651;BME280;38537;47.226;39.702;2023-07-13T04:08:54;100687.06;;;19.44;58.91
52651;BME280;38537;47.226;39.702;2023-07-13T04:11:24;100706.41;;;19.54;56.62
52651;BME280;38537;47.226;39.702;2023-07-13T04:13:52;100676.59;;;19.32;56.98
52651;BME280;38537;47.226;39.702;2023-07-13T04:16:20;100681.66;;;19.39;56.97
52651;BME280;38537;47.226;39.702;2023-07-13T04:18:50;100704.28;;;19.51;57.46
52651;BME280;38537;47.226;39.702;2023-07-13T04:21:22;100685.66;;;19.50;57.59
52651;BME280;38537;47.226;39.702;2023-07-13T04:23:50;100691.06;;;19.55;57.13
52651;BME280;38537;47.226;39.702;2023-07-13T04:26:19;100731.53;;;19.83;56.76
52651;BME280;38537;47.226;39.702;2023-07-13T04:28:49;100735.31;;;19.88;56.44
52651;BME280;38537;47.226;39.702;2023-07-13T04:31:17;100717.84;;;19.85;56.45
52651;BME280;38537;47.226;39.702;2023-07-13T04:33:46;100709.25;;;19.98;57.22
52651;BME280;38537;47.226;39.702;2023-07-13T04:36:16;100721.00;;;20.12;56.47
52651;BME280;38537;47.226;39.702;2023-07-13T04:38:44;100690.69;;;20.00;56.20
52651;BME280;38537;47.226;39.702;2023-07-13T04:41:12;100700.22;;;20.08;56.20
52651;BME280;38537;47.226;39.702;2023-07-13T04:43:40;100709.81;;;20.19;54.33
52651;BME280;38537;47.226;39.702;2023-07-13T04:46:10;100686.78;;;20.05;52.40
52651;BME280;38537;47.226;39.702;2023-07-13T04:48:38;100705.91;;;20.08;50.20
52651;BME280;38537;47.226;39.702;2023-07-13T04:51:06;100719.06;;;20.16;50.98
52651;BME280;38537;47.226;39.702;2023-07-13T04:53:34;100694.09;;;20.06;51.83
52651;BME280;38537;47.226;39.702;2023-07-13T04:56:03;100723.63;;;20.36;52.28
52651;BME280;38537;47.226;39.702;2023-07-13T04:58:31;100728.25;;;20.41;51.38
52651;BME280;38537;47.226;39.702;2023-07-13T05:01:05;100734.22;;;20.51;50.21
52651;BME280;38537;47.226;39.702;2023-07-13T05:03:33;100731.84;;;20.53;50.47
52651;BME280;38537;47.226;39.702;2023-07-13T05:06:04;100746.66;;;20.63;50.65
52651;BME280;38537;47.226;39.702;2023-07-13T05:08:33;100719.56;;;20.49;48.96
52651;BME280;38537;47.226;39.702;2023-07-13T05:11:03;100752.16;;;20.71;49.31
52651;BME280;38537;47.226;39.702;2023-07-13T05:13:31;100730.44;;;20.63;47.52
52651;BME280;38537;47.226;39.702;2023-07-13T05:16:01;100717.34;;;20.59;47.89
52651;BME280;38537;47.226;39.702;2023-07-13T05:18:31;100752.84;;;20.84;48.86
52651;BME280;38537;47.226;39.702;2023-07-13T05:21:04;100744.06;;;20.89;49.42
52651;BME280;38537;47.226;39.702;2023-07-13T05:23:32;100757.19;;;21.13;49.95
52651;BME280;38537;47.226;39.702;2023-07-13T05:26:00;100728.34;;;21.11;50.15
52651;BME280;38537;47.226;39.702;2023-07-13T05:28:31;100764.81;;;21.44;50.35
52651;BME280;38537;47.226;39.702;2023-07-13T05:31:00;100747.78;;;21.44;50.89
52651;BME280;38537;47.226;39.702;2023-07-13T05:33:27;100737.63;;;21.62;51.52
52651;BME280;38537;47.226;39.702;2023-07-13T05:35:55;100753.63;;;21.70;51.43
52651;BME280;38537;47.226;39.702;2023-07-13T05:38:23;100754.31;;;21.83;51.61
52651;BME280;38537;47.226;39.702;2023-07-13T05:40:50;100760.53;;;22.08;51.65
52651;BME280;38537;47.226;39.702;2023-07-13T05:43:18;100745.03;;;21.86;48.82
52651;BME280;38537;47.226;39.702;2023-07-13T05:45:45;100748.53;;;21.79;46.88
52651;BME280;38537;47.226;39.702;2023-07-13T05:48:14;100758.84;;;21.68;45.31
52651;BME280;38537;47.226;39.702;2023-07-13T05:50:41;100748.00;;;21.54;45.20
52651;BME280;38537;47.226;39.702;2023-07-13T05:53:09;100764.41;;;21.61;44.15
52651;BME280;38537;47.226;39.702;2023-07-13T05:55:41;100756.53;;;21.54;43.85
52651;BME280;38537;47.226;39.702;2023-07-13T05:58:09;100755.34;;;21.55;44.82
52651;BME280;38537;47.226;39.702;2023-07-13T06:00:36;100744.81;;;21.56;45.47
52651;BME280;38537;47.226;39.702;2023-07-13T06:03:04;100755.97;;;21.65;44.01
52651;BME280;38537;47.226;39.702;2023-07-13T06:05:39;100729.56;;;21.64;44.70
52651;BME280;38537;47.226;39.702;2023-07-13T06:08:07;100760.50;;;21.69;44.56
52651;BME280;38537;47.226;39.702;2023-07-13T06:10:35;100772.84;;;21.77;44.56
52651;BME280;38537;47.226;39.702;2023-07-13T06:13:03;100755.63;;;21.70;44.09
52651;BME280;38537;47.226;39.702;2023-07-13T06:15:31;100745.38;;;21.65;44.76
52651;BME280;38537;47.226;39.702;2023-07-13T06:17:58;100761.63;;;21.84;45.46
52651;BME280;38537;47.226;39.702;2023-07-13T06:20:25;100739.19;;;21.79;46.07
52651;BME280;38537;47.226;39.702;2023-07-13T06:22:53;100747.06;;;22.05;46.48
52651;BME280;38537;47.226;39.702;2023-07-13T06:25:21;100743.88;;;22.10;46.37
52651;BME280;38537;47.226;39.702;2023-07-13T06:27:48;100757.63;;;22.27;46.31
52651;BME280;38537;47.226;39.702;2023-07-13T06:30:18;100748.75;;;22.32;44.55
52651;BME280;38537;47.226;39.702;2023-07-13T06:32:45;100741.13;;;22.36;45.16
52651;BME280;38537;47.226;39.702;2023-07-13T06:35:13;100709.31;;;22.31;45.40
52651;BME280;38537;47.226;39.702;2023-07-13T06:37:42;100746.38;;;22.57;44.56
52651;BME280;38537;47.226;39.702;2023-07-13T06:40:10;100731.53;;;22.44;44.47
52651;BME280;38537;47.226;39.702;2023-07-13T06:42:37;100732.84;;;22.50;44.83
52651;BME280;38537;47.226;39.702;2023-07-13T06:45:06;100718.63;;;22.50;43.93
52651;BME280;38537;47.226;39.702;2023-07-13T06:47:34;100735.56;;;22.66;44.04
52651;BME280;38537;47.226;39.702;2023-07-13T06:50:01;100736.38;;;22.67;43.81
52651;BME280;38537;47.226;39.702;2023-07-13T06:52:30;100715.00;;;22.53;43.36
52651;BME280;38537;47.226;39.702;2023-07-13T06:54:57;100717.06;;;22.56;43.41
52651;BME280;38537;47.226;39.702;2023-07-13T06:57:24;100727.47;;;22.68;43.07
52651;BME280;38537;47.226;39.702;2023-07-13T06:59:52;100715.25;;;22.68;42.51
52651;BME280;38537;47.226;39.702;2023-07-13T07:02:19;100729.78;;;22.63;41.16
52651;BME280;38537;47.226;39.702;2023-07-13T07:04:46;100724.09;;;22.63;41.17
52651;BME280;38537;47.226;39.702;2023-07-13T07:07:14;100718.19;;;22.48;40.61
52651;BME280;38537;47.226;39.702;2023-07-13T07:09:41;100756.69;;;22.42;39.55
52651;BME280;38537;47.226;39.702;2023-07-13T07:12:09;100739.59;;;22.19;39.95
52651;BME280;38537;47.226;39.702;2023-07-13T07:14:39;100756.38;;;22.25;40.61
52651;BME280;38537;47.226;39.702;2023-07-13T07:17:06;100740.19;;;22.29;40.91
52651;BME280;38537;47.226;39.702;2023-07-13T07:19:35;100756.00;;;22.49;41.58
52651;BME280;38537;47.226;39.702;2023-07-13T07:22:02;100740.69;;;22.34;40.84
52651;BME280;38537;47.226;39.702;2023-07-13T07:24:30;100745.06;;;22.51;41.48
52651;BME280;38537;47.226;39.702;2023-07-13T07:26:57;100729.66;;;22.55;41.48
52651;BME280;38537;47.226;39.702;2023-07-13T07:29:28;100724.09;;;22.63;41.16
52651;BME280;38537;47.226;39.702;2023-07-13T07:31:59;100729.53;;;22.71;42.01
52651;BME280;38537;47.226;39.702;2023-07-13T07:34:44;100709.81;;;22.82;42.49
52651;BME280;38537;47.226;39.702;2023-07-13T07:37:13;100727.59;;;23.02;42.36
52651;BME280;38537;47.226;39.702;2023-07-13T07:39:44;100708.53;;;23.06;42.05
52651;BME280;38537;47.226;39.702;2023-07-13T07:42:32;100721.19;;;23.08;41.16
52651;BME280;38537;47.226;39.702;2023-07-13T07:45:00;100719.75;;;22.95;40.54
52651;BME280;38537;47.226;39.702;2023-07-13T07:47:30;100746.00;;;23.08;40.99
52651;BME280;38537;47.226;39.702;2023-07-13T07:50:00;100733.72;;;23.04;41.64
52651;BME280;38537;47.226;39.702;2023-07-13T07:52:29;100744.19;;;23.22;42.03
52651;BME280;38537;47.226;39.702;2023-07-13T07:54:57;100739.59;;;23.14;41.35
52651;BME280;38537;47.226;39.702;2023-07-13T07:57:45;100749.88;;;23.22;42.40
52651;BME280;38537;47.226;39.702;2023-07-13T08:00:16;100738.03;;;23.20;42.50
52651;BME280;38537;47.226;39.702;2023-07-13T08:02:46;100762.28;;;23.34;42.14
52651;BME280;38537;47.226;39.702;2023-07-13T08:05:19;100775.22;;;23.54;42.75
52651;BME280;38537;47.226;39.702;2023-07-13T08:08:06;100761.84;;;23.58;43.19
52651;BME280;38537;47.226;39.702;2023-07-13T08:10:36;100775.50;;;23.75;42.71
52651;BME280;38537;47.226;39.702;2023-07-13T08:13:06;100756.13;;;23.58;41.79
52651;BME280;38537;47.226;39.702;2023-07-13T08:15:36;100747.34;;;23.44;42.11
52651;BME280;38537;47.226;39.702;2023-07-13T08:18:04;100774.13;;;23.66;42.58
52651;BME280;38537;47.226;39.702;2023-07-13T08:20:31;100763.03;;;23.57;42.27
52651;BME280;38537;47.226;39.702;2023-07-13T08:22:59;100772.88;;;23.63;41.74
52651;BME280;38537;47.226;39.702;2023-07-13T08:25:27;100777.81;;;23.66;41.40
52651;BME280;38537;47.226;39.702;2023-07-13T08:27:54;100789.53;;;23.61;41.79
52651;BME280;38537;47.226;39.702;2023-07-13T08:30:25;100775.50;;;23.49;41.73
52651;BME280;38537;47.226;39.702;2023-07-13T08:32:53;100796.16;;;23.69;42.08
52651;BME280;38537;47.226;39.702;2023-07-13T08:35:20;100787.56;;;23.65;41.86
52651;BME280;38537;47.226;39.702;2023-07-13T08:37:51;100759.75;;;23.55;41.96
52651;BME280;38537;47.226;39.702;2023-07-13T08:40:24;100776.59;;;23.67;41.20
52651;BME280;38537;47.226;39.702;2023-07-13T08:42:58;100774.50;;;23.64;41.33
52651;BME280;38537;47.226;39.702;2023-07-13T08:45:44;100764.41;;;23.70;41.69
52651;BME280;38537;47.226;39.702;2023-07-13T08:48:20;100770.22;;;23.77;41.81
52651;BME280;38537;47.226;39.702;2023-07-13T08:51:16;100772.31;;;23.80;41.59
52651;BME280;38537;47.226;39.702;2023-07-13T08:53:54;100735.91;;;23.70;42.15
52651;BME280;38537;47.226;39.702;2023-07-13T08:56:25;100747.09;;;23.86;42.33
52651;BME280;38537;47.226;39.702;2023-07-13T08:58:58;100733.34;;;23.95;43.44
52651;BME280;38537;47.226;39.702;2023-07-13T09:04:23;100742.00;;;24.39;42.96
52651;BME280;38537;47.226;39.702;2023-07-13T09:09:55;100772.94;;;24.78;43.59
52651;BME280;38537;47.226;39.702;2023-07-13T09:18:03;100763.44;;;24.63;40.57
52651;BME280;38537;47.226;39.702;2023-07-13T09:20:39;100636.56;;;23.76;39.79
52651;BME280;38537;47.226;39.702;2023-07-13T09:23:11;100757.34;;;24.65;40.31
52651;BME280;38537;47.226;39.702;2023-07-13T09:25:48;100759.03;;;24.32;39.95
52651;BME280;38537;47.226;39.702;2023-07-13T09:28:27;100752.25;;;24.10;39.83
52651;BME280;38537;47.226;39.702;2023-07-13T09:31:07;100741.53;;;23.97;40.32
52651;BME280;38537;47.226;39.702;2023-07-13T09:33:38;100728.72;;;23.83;40.65
52651;BME280;38537;47.226;39.702;2023-07-13T09:36:31;100731.81;;;24.05;40.57
52651;BME280;38537;47.226;39.702;2023-07-13T09:44:29;100745.06;;;24.60;41.97
52651;BME280;38537;47.226;39.702;2023-07-13T09:46:59;100739.19;;;24.43;40.03
52651;BME280;38537;47.226;39.702;2023-07-13T09:49:34;100728.13;;;24.38;40.07
52651;BME280;38537;47.226;39.702;2023-07-13T09:52:09;100737.88;;;24.37;39.57
52651;BME280;38537;47.226;39.702;2023-07-13T09:54:44;100750.47;;;24.32;38.98
52651;BME280;38537;47.226;39.702;2023-07-13T09:57:17;100717.97;;;24.03;38.88
52651;BME280;38537;47.226;39.702;2023-07-13T09:59:49;100714.00;;;24.15;39.78
52651;BME280;38537;47.226;39.702;2023-07-13T10:02:31;100732.16;;;24.33;39.37
52651;BME280;38537;47.226;39.702;2023-07-13T10:05:06;100733.81;;;24.38;40.13
52651;BME280;38537;47.226;39.702;2023-07-13T10:07:40;100719.94;;;24.36;39.79
52651;BME280;38537;47.226;39.702;2023-07-13T10:10:16;100731.09;;;24.52;39.54
52651;BME280;38537;47.226;39.702;2023-07-13T10:12:44;100700.88;;;24.47;39.39
52651;BME280;38537;47.226;39.702;2023-07-13T10:15:21;100714.81;;;24.56;39.52
52651;BME280;38537;47.226;39.702;2023-07-13T10:17:53;100727.63;;;24.76;40.57
52651;BME280;38537;47.226;39.702;2023-07-13T10:20:21;100722.84;;;24.87;41.32
52651;BME280;38537;47.226;39.702;2023-07-13T10:23:00;100725.03;;;25.05;41.34
52651;BME280;38537;47.226;39.702;2023-07-13T10:25:34;100714.84;;;25.14;39.67
52651;BME280;38537;47.226;39.702;2023-07-13T10:28:30;100724.78;;;25.38;40.32
52651;BME280;38537;47.226;39.702;2023-07-13T10:31:00;100725.25;;;25.44;40.79
52651;BME280;38537;47.226;39.702;2023-07-13T10:33:28;100708.94;;;25.51;41.26
52651;BME280;38537;47.226;39.702;2023-07-13T10:36:13;100726.63;;;25.68;40.04
52651;BME280;38537;47.226;39.702;2023-07-13T10:38:46;100717.56;;;25.62;40.21
52651;BME280;38537;47.226;39.702;2023-07-13T10:41:19;100693.00;;;25.57;40.58
52651;BME280;38537;47.226;39.702;2023-07-13T10:43:50;100705.38;;;25.79;41.23
52651;BME280;38537;47.226;39.702;2023-07-13T10:46:22;100723.81;;;25.85;38.71
52651;BME280;38537;47.226;39.702;2023-07-13T10:48:56;100708.97;;;25.58;38.10
52651;BME280;38537;47.226;39.702;2023-07-13T10:51:25;100724.19;;;25.80;39.12
52651;BME280;38537;47.226;39.702;2023-07-13T10:54:26;100720.00;;;25.60;37.13
52651;BME280;38537;47.226;39.702;2023-07-13T10:57:10;100705.69;;;25.53;39.40
52651;BME280;38537;47.226;39.702;2023-07-13T11:00:14;100705.81;;;25.74;39.93
52651;BME280;38537;47.226;39.702;2023-07-13T11:02:42;100705.38;;;25.72;38.54
52651;BME280;38537;47.226;39.702;2023-07-13T11:05:28;100692.34;;;25.85;39.81
52651;BME280;38537;47.226;39.702;2023-07-13T11:08:35;100712.41;;;25.96;38.10
52651;BME280;38537;47.226;39.702;2023-07-13T11:21:20;100691.34;;;25.46;38.32
52651;BME280;38537;47.226;39.702;2023-07-13T11:29:37;100704.59;;;25.86;39.74
52651;BME280;38537;47.226;39.702;2023-07-13T11:32:25;100701.41;;;26.12;39.96
52651;BME280;38537;47.226;39.702;2023-07-13T11:34:54;100682.19;;;26.23;39.57
52651;BME280;38537;47.226;39.702;2023-07-13T11:37:23;100686.75;;;26.56;38.58
52651;BME280;38537;47.226;39.702;2023-07-13T11:39:51;100674.88;;;26.61;38.20
52651;BME280;38537;47.226;39.702;2023-07-13T11:42:21;100678.53;;;26.73;38.97
52651;BME280;38537;47.226;39.702;2023-07-13T11:44:50;100677.31;;;26.74;37.35
52651;BME280;38537;47.226;39.702;2023-07-13T11:47:40;100671.97;;;26.72;37.79
52651;BME280;38537;47.226;39.702;2023-07-13T11:50:19;100679.31;;;26.91;38.32
52651;BME280;38537;47.226;39.702;2023-07-13T11:52:48;100668.28;;;26.89;38.37
52651;BME280;38537;47.226;39.702;2023-07-13T11:55:19;100680.13;;;27.09;38.22
52651;BME280;38537;47.226;39.702;2023-07-13T11:57:57;100676.88;;;26.86;34.99
52651;BME280;38537;47.226;39.702;2023-07-13T12:00:32;100675.25;;;26.63;36.38
52651;BME280;38537;47.226;39.702;2023-07-13T12:03:01;100687.53;;;26.64;36.52
52651;BME280;38537;47.226;39.702;2023-07-13T12:05:32;100691.25;;;26.57;36.79
52651;BME280;38537;47.226;39.702;2023-07-13T12:08:08;100681.00;;;26.42;35.64
52651;BME280;38537;47.226;39.702;2023-07-13T12:10:59;100686.72;;;26.46;36.68
52651;BME280;38537;47.226;39.702;2023-07-13T12:13:27;100678.16;;;26.56;37.70
52651;BME280;38537;47.226;39.702;2023-07-13T12:15:57;100654.81;;;26.54;37.18
52651;BME280;38537;47.226;39.702;2023-07-13T12:18:30;100676.88;;;26.86;37.50
52651;BME280;38537;47.226;39.702;2023-07-13T12:20:59;100674.44;;;27.02;37.44
52651;BME280;38537;47.226;39.702;2023-07-13T12:23:30;100677.69;;;26.93;37.28
52651;BME280;38537;47.226;39.702;2023-07-13T12:26:00;100666.25;;;26.83;36.77
52651;BME280;38537;47.226;39.702;2023-07-13T12:28:38;100668.72;;;26.95;37.34
52651;BME280;38537;47.226;39.702;2023-07-13T12:36:26;100663.34;;;26.93;36.51
52651;BME280;38537;47.226;39.702;2023-07-13T12:38:58;100655.16;;;26.92;36.75
52651;BME280;38537;47.226;39.702;2023-07-13T12:41:32;100654.34;;;26.88;36.53
52651;BME280;38537;47.226;39.702;2023-07-13T12:44:00;100666.66;;;27.03;36.58
52651;BME280;38537;47.226;39.702;2023-07-13T12:46:28;100628.16;;;26.86;36.72
52651;BME280;38537;47.226;39.702;2023-07-13T12:48:57;100659.69;;;27.00;36.14
52651;BME280;38537;47.226;39.702;2023-07-13T12:51:43;100640.88;;;26.71;35.66
52651;BME280;38537;47.226;39.702;2023-07-13T12:54:20;100635.16;;;26.49;34.33
52651;BME280;38537;47.226;39.702;2023-07-13T12:56:52;100631.09;;;26.47;35.92
52651;BME280;38537;47.226;39.702;2023-07-13T12:59:22;100652.75;;;26.66;36.56
52651;BME280;38537;47.226;39.702;2023-07-13T13:01:50;100651.53;;;26.67;36.94
52651;BME280;38537;47.226;39.702;2023-07-13T13:04:18;100653.97;;;26.72;36.72
52651;BME280;38537;47.226;39.702;2023-07-13T13:06:58;100646.56;;;26.85;37.15
52651;BME280;38537;47.226;39.702;2023-07-13T13:09:28;100634.28;;;26.88;37.40
52651;BME280;38537;47.226;39.702;2023-07-13T13:11:55;100631.00;;;26.93;37.00
52651;BME280;38537;47.226;39.702;2023-07-13T13:14:22;100644.91;;;27.12;36.96
52651;BME280;38537;47.226;39.702;2023-07-13T13:16:51;100650.63;;;27.12;36.25
52651;BME280;38537;47.226;39.702;2023-07-13T13:19:24;100640.41;;;26.93;35.14
52651;BME280;38537;47.226;39.702;2023-07-13T13:21:54;100637.59;;;26.83;35.60
52651;BME280;38537;47.226;39.702;2023-07-13T13:24:26;100637.19;;;26.74;35.40
52651;BME280;38537;47.226;39.702;2023-07-13T13:26:54;100633.13;;;26.60;35.76
52651;BME280;38537;47.226;39.702;2023-07-13T13:29:25;100627.00;;;26.55;36.63
52651;BME280;38537;47.226;39.702;2023-07-13T13:31:54;100638.41;;;26.66;36.80
52651;BME280;38537;47.226;39.702;2023-07-13T13:34:23;100612.66;;;26.58;36.75
52651;BME280;38537;47.226;39.702;2023-07-13T13:36:52;100615.50;;;26.83;37.24
52651;BME280;38537;47.226;39.702;2023-07-13T13:39:33;100600.72;;;26.92;37.11
52651;BME280;38537;47.226;39.702;2023-07-13T13:42:01;100607.22;;;27.17;37.13